Time;durP1;ratioP1;P1;durP2;ratioP2;P2;SDS_P1;SDS_P2;PMS_P1;PMS_P2;Temp;Humidity;BMP_temperature;BMP_pressure;BME280_temperature;BME280_humidity;BME280_pressure;Samples;Min_cycle;Max_cycle;Signal;HPM_P1;HPM_P2
2023/04/26 00:00:19;;;;;;;13.70;9.90;;;6.70;97.80;;;;;;5014058;28;20435;-72
2023/04/26 00:02:46;;;;;;;14.20;9.50;;;6.80;98.10;;;;;;5012337;28;20537;-72
2023/04/26 00:05:13;;;;;;;12.70;10.40;;;6.90;97.00;;;;;;5013644;28;20444;-71
2023/04/26 00:07:41;;;;;;;14.50;10.67;;;6.90;97.00;;;;;;5013217;28;20454;-73
2023/04/26 00:10:09;;;;;;;13.13;9.47;;;6.80;96.40;;;;;;5008753;28;20539;-72
2023/04/26 00:12:39;;;;;;;10.90;9.10;;;6.80;96.90;;;;;;4992741;28;20487;-72
2023/04/26 00:15:08;;;;;;;13.83;10.37;;;6.70;97.20;;;;;;4993634;28;20496;-73
2023/04/26 00:17:35;;;;;;;11.80;9.90;;;6.80;96.60;;;;;;4993796;28;20450;-74
2023/04/26 00:20:04;;;;;;;12.20;10.40;;;6.80;96.40;;;;;;4993785;28;20466;-72
2023/04/26 00:22:31;;;;;;;11.77;9.60;;;6.80;96.90;;;;;;4992383;28;20740;-71
2023/04/26 00:25:02;;;;;;;14.83;11.33;;;6.80;96.60;;;;;;4993570;28;20436;-73
2023/04/26 00:27:29;;;;;;;12.07;10.33;;;6.80;96.80;;;;;;4994457;28;20548;-73
2023/04/26 00:29:57;;;;;;;14.17;10.50;;;6.80;97.30;;;;;;4993559;28;20449;-71
2023/04/26 00:32:24;;;;;;;15.77;10.60;;;6.80;96.70;;;;;;4992165;28;20470;-72
2023/04/26 00:34:51;;;;;;;11.10;9.17;;;6.70;97.10;;;;;;4993661;28;20845;-72
2023/04/26 00:37:17;;;;;;;12.90;9.77;;;6.50;97.30;;;;;;4993527;28;20440;-71
2023/04/26 00:39:45;;;;;;;11.60;10.27;;;6.30;97.80;;;;;;4993099;28;20937;-71
2023/04/26 00:42:12;;;;;;;14.03;10.87;;;6.30;98.30;;;;;;4992789;28;20539;-72
2023/04/26 00:44:39;;;;;;;15.13;10.50;;;6.10;98.20;;;;;;5008580;28;20448;-72
2023/04/26 00:47:08;;;;;;;15.07;11.03;;;6.00;98.50;;;;;;5012759;28;20478;-73
2023/04/26 00:49:35;;;;;;;16.83;11.70;;;6.00;98.70;;;;;;5013024;28;20977;-72
2023/04/26 00:52:02;;;;;;;17.00;11.50;;;6.10;98.50;;;;;;5012276;28;20458;-71
2023/04/26 00:54:29;;;;;;;15.10;11.53;;;6.10;98.00;;;;;;5011881;28;20484;-73
2023/04/26 00:56:57;;;;;;;15.60;12.70;;;6.10;98.00;;;;;;5012579;28;20462;-71
2023/04/26 00:59:24;;;;;;;14.30;12.40;;;6.10;98.20;;;;;;5010562;28;20447;-73
2023/04/26 01:01:50;;;;;;;13.63;10.30;;;6.10;98.10;;;;;;4993126;28;20448;-72
2023/04/26 01:04:19;;;;;;;15.73;12.40;;;6.20;98.40;;;;;;4991500;28;20433;-71
2023/04/26 01:06:46;;;;;;;14.77;11.80;;;6.10;98.20;;;;;;4991871;28;20954;-70
2023/04/26 01:09:14;;;;;;;14.20;12.37;;;6.10;98.60;;;;;;4993080;28;20792;-72
2023/04/26 01:11:42;;;;;;;15.33;11.63;;;6.10;98.70;;;;;;4993149;28;20458;-72
2023/04/26 01:14:10;;;;;;;15.27;12.43;;;6.10;98.30;;;;;;4992085;28;20489;-71
2023/04/26 01:16:37;;;;;;;13.73;11.47;;;6.10;98.20;;;;;;4993949;28;20803;-73
2023/04/26 01:19:09;;;;;;;15.50;12.10;;;6.10;98.00;;;;;;4994533;28;20445;-72
2023/04/26 01:21:38;;;;;;;14.97;11.50;;;6.10;98.00;;;;;;4992536;28;20512;-72
2023/04/26 01:24:09;;;;;;;14.53;11.67;;;6.00;97.90;;;;;;4991564;28;20462;-70
2023/04/26 01:26:36;;;;;;;14.50;12.30;;;5.90;97.90;;;;;;4993119;28;20783;-73
2023/04/26 01:29:13;;;;;;;15.20;11.10;;;5.90;97.80;;;;;;4992575;28;20455;-71
2023/04/26 01:31:40;;;;;;;12.40;10.70;;;5.80;98.00;;;;;;4992864;28;20454;-73
2023/04/26 01:34:07;;;;;;;15.07;11.73;;;5.80;98.10;;;;;;4992484;28;20476;-73
2023/04/26 01:36:33;;;;;;;16.00;13.13;;;5.70;98.20;;;;;;4993011;28;20443;-71
2023/04/26 01:39:00;;;;;;;12.60;10.83;;;5.60;98.10;;;;;;4992685;28;20446;-72
2023/04/26 01:41:28;;;;;;;16.63;11.87;;;5.50;98.00;;;;;;4992587;28;20456;-72
2023/04/26 01:43:55;;;;;;;13.50;11.93;;;5.40;98.00;;;;;;4996655;28;20469;-71
2023/04/26 01:46:22;;;;;;;15.53;11.30;;;5.30;98.10;;;;;;5011787;28;20942;-71
2023/04/26 01:48:49;;;;;;;15.60;12.63;;;5.20;98.40;;;;;;5012281;28;20446;-72
2023/04/26 01:51:16;;;;;;;13.00;11.60;;;5.10;98.80;;;;;;5011886;28;20468;-73
2023/04/26 01:53:43;;;;;;;15.33;12.70;;;5.10;99.00;;;;;;5010682;28;20836;-71
2023/04/26 01:56:10;;;;;;;16.47;12.50;;;5.10;99.60;;;;;;5004154;28;21128;-72
2023/04/26 01:58:38;;;;;;;14.63;11.67;;;5.00;99.40;;;;;;4992526;28;20526;-72
2023/04/26 02:01:07;;;;;;;17.33;12.40;;;5.00;99.30;;;;;;4992728;28;20448;-71
2023/04/26 02:03:34;;;;;;;17.87;12.20;;;5.00;99.40;;;;;;4990622;28;20465;-72
2023/04/26 02:06:01;;;;;;;13.03;11.13;;;5.10;99.80;;;;;;4991681;28;20536;-71
2023/04/26 02:08:27;;;;;;;15.80;11.73;;;5.20;99.40;;;;;;4991806;28;20450;-74
2023/04/26 02:10:54;;;;;;;13.30;10.83;;;5.20;99.70;;;;;;5002983;28;20549;-71
2023/04/26 02:13:21;;;;;;;19.53;13.83;;;5.20;99.80;;;;;;5010123;28;20495;-72
2023/04/26 02:15:50;;;;;;;17.83;12.10;;;5.10;99.90;;;;;;5011393;28;20454;-72
2023/04/26 02:18:20;;;;;;;14.60;11.30;;;5.20;99.90;;;;;;5010820;28;20526;-72
2023/04/26 02:20:47;;;;;;;16.57;12.73;;;5.10;99.90;;;;;;5011259;28;20812;-72
2023/04/26 02:23:14;;;;;;;14.80;10.97;;;5.10;99.90;;;;;;5010054;28;20475;-71
2023/04/26 02:25:41;;;;;;;16.17;12.20;;;5.10;99.90;;;;;;5011163;28;20443;-72
2023/04/26 02:28:08;;;;;;;14.63;12.17;;;5.10;99.90;;;;;;5009491;28;20450;-72
2023/04/26 02:30:35;;;;;;;18.97;11.20;;;5.10;99.90;;;;;;5011331;28;20538;-72
2023/04/26 02:33:03;;;;;;;13.90;11.03;;;5.20;99.90;;;;;;5009578;28;20515;-73
2023/04/26 02:35:30;;;;;;;13.67;11.43;;;5.10;99.90;;;;;;5010132;28;21290;-72
2023/04/26 02:37:57;;;;;;;15.27;11.73;;;5.20;99.90;;;;;;5010820;28;20451;-72
2023/04/26 02:40:24;;;;;;;12.63;10.70;;;5.30;99.20;;;;;;5010604;28;20450;-71
2023/04/26 02:42:51;;;;;;;16.57;10.87;;;5.30;98.90;;;;;;5009272;28;20945;-73
2023/04/26 02:45:18;;;;;;;16.03;11.70;;;5.20;99.20;;;;;;5008957;28;20449;-73
2023/04/26 02:47:44;;;;;;;15.27;12.40;;;5.20;99.80;;;;;;5010408;28;20821;-71
2023/04/26 02:50:13;;;;;;;12.80;11.40;;;5.20;99.90;;;;;;5010733;28;20443;-72
2023/04/26 02:52:40;;;;;;;13.33;11.93;;;5.30;99.90;;;;;;5009300;28;20476;-72
2023/04/26 02:55:08;;;;;;;14.07;11.87;;;5.30;99.90;;;;;;5010449;28;20831;-72
2023/04/26 02:57:35;;;;;;;19.43;13.87;;;5.20;99.90;;;;;;5010654;28;20442;-72
2023/04/26 03:00:04;;;;;;;15.77;12.37;;;5.10;99.90;;;;;;5010187;28;20449;-71
2023/04/26 03:02:31;;;;;;;18.77;11.77;;;5.10;99.90;;;;;;5008649;28;20472;-71
2023/04/26 03:04:58;;;;;;;15.20;11.30;;;5.10;99.90;;;;;;5010814;28;20845;-72
2023/04/26 03:07:26;;;;;;;13.70;10.33;;;5.10;99.90;;;;;;5010385;28;20450;-72
2023/04/26 03:09:52;;;;;;;14.37;10.80;;;5.10;99.90;;;;;;5010630;28;20905;-72
2023/04/26 03:12:20;;;;;;;14.17;11.20;;;5.10;99.90;;;;;;5009608;28;20465;-72
2023/04/26 03:14:46;;;;;;;14.30;11.47;;;5.00;99.90;;;;;;5011605;28;20483;-73
2023/04/26 03:17:13;;;;;;;15.87;10.70;;;4.90;99.90;;;;;;5025677;28;20456;-72
2023/04/26 03:19:40;;;;;;;15.57;10.50;;;4.80;99.60;;;;;;4990338;28;20472;-73
2023/04/26 03:22:07;;;;;;;12.27;10.30;;;4.80;99.00;;;;;;4990127;28;20458;-72
2023/04/26 03:24:35;;;;;;;15.57;10.70;;;4.80;99.00;;;;;;4989511;28;20468;-72
2023/04/26 03:27:02;;;;;;;14.47;11.03;;;4.80;99.00;;;;;;4990691;28;20513;-73
2023/04/26 03:29:29;;;;;;;11.67;9.47;;;4.80;98.80;;;;;;4990464;28;20440;-73
2023/04/26 03:31:56;;;;;;;13.43;10.77;;;4.80;98.90;;;;;;4994437;28;20459;-72
2023/04/26 03:34:23;;;;;;;18.00;11.33;;;4.80;99.10;;;;;;4994413;28;20502;-73
2023/04/26 03:36:50;;;;;;;12.23;10.53;;;4.60;99.20;;;;;;4994330;28;20803;-72
2023/04/26 03:39:17;;;;;;;15.40;11.23;;;4.60;99.50;;;;;;4994292;28;20442;-72
2023/04/26 03:41:45;;;;;;;11.43;10.23;;;4.50;99.60;;;;;;4994311;28;20453;-71
2023/04/26 03:44:13;;;;;;;16.57;11.57;;;4.50;99.50;;;;;;4993144;28;20439;-71
2023/04/26 03:46:39;;;;;;;11.93;10.73;;;4.40;99.70;;;;;;4994431;28;20454;-72
2023/04/26 03:49:06;;;;;;;21.70;13.23;;;4.40;99.90;;;;;;4994172;28;20821;-72
2023/04/26 03:51:33;;;;;;;15.73;11.77;;;4.30;99.90;;;;;;4995960;28;20453;-73
2023/04/26 03:54:00;;;;;;;24.97;12.73;;;4.30;99.90;;;;;;4993358;28;20490;-73
2023/04/26 03:56:27;;;;;;;19.17;12.43;;;4.30;99.90;;;;;;4995194;28;20455;-72
2023/04/26 03:58:55;;;;;;;16.67;12.97;;;4.20;99.90;;;;;;4994051;28;20530;-71
2023/04/26 04:01:22;;;;;;;18.57;11.70;;;4.30;99.90;;;;;;4993987;28;20541;-72
2023/04/26 04:03:49;;;;;;;17.07;12.43;;;4.20;99.90;;;;;;4993030;28;20466;-73
2023/04/26 04:06:16;;;;;;;14.90;13.00;;;4.20;99.90;;;;;;4994274;28;20702;-73
2023/04/26 04:08:43;;;;;;;18.97;12.57;;;4.10;99.90;;;;;;4993959;28;20533;-71
2023/04/26 04:11:10;;;;;;;15.83;13.03;;;4.00;99.90;;;;;;4994875;28;20455;-72
2023/04/26 04:13:37;;;;;;;19.00;14.40;;;4.00;99.90;;;;;;4992457;28;20815;-72
2023/04/26 04:16:05;;;;;;;22.03;15.90;;;4.00;99.90;;;;;;4993751;28;20482;-72
2023/04/26 04:18:32;;;;;;;18.63;15.13;;;4.00;99.90;;;;;;4993929;28;20529;-71
2023/04/26 04:20:59;;;;;;;19.17;15.47;;;3.90;99.90;;;;;;4993668;28;20454;-71
2023/04/26 04:23:26;;;;;;;21.13;17.13;;;3.80;99.90;;;;;;4992140;28;20474;-72
2023/04/26 04:25:53;;;;;;;26.10;18.20;;;3.70;99.90;;;;;;5010965;28;20512;-71
2023/04/26 04:28:21;;;;;;;23.03;18.90;;;3.70;99.90;;;;;;5013166;28;20549;-70
2023/04/26 04:30:48;;;;;;;24.47;20.10;;;3.70;99.90;;;;;;5012885;28;20460;-70
2023/04/26 04:33:18;;;;;;;22.80;16.80;;;3.80;99.90;;;;;;5011638;28;20450;-70
2023/04/26 04:35:45;;;;;;;18.70;15.27;;;3.70;99.90;;;;;;5013089;28;20847;-70
2023/04/26 04:38:13;;;;;;;26.27;16.67;;;3.70;99.90;;;;;;5010038;28;20462;-70
2023/04/26 04:40:40;;;;;;;20.90;15.00;;;3.80;99.90;;;;;;4994222;28;20462;-74
2023/04/26 04:43:06;;;;;;;19.60;15.00;;;3.90;99.90;;;;;;4992095;28;20480;-71
2023/04/26 04:45:34;;;;;;;22.27;15.17;;;3.90;99.90;;;;;;4993184;28;20450;-70
2023/04/26 04:48:01;;;;;;;20.43;14.33;;;4.00;99.90;;;;;;4993118;28;20490;-71
2023/04/26 04:50:30;;;;;;;19.10;16.03;;;4.20;99.90;;;;;;4993087;28;20442;-72
2023/04/26 04:52:57;;;;;;;16.67;14.40;;;4.30;99.90;;;;;;4991851;28;20553;-70
2023/04/26 04:55:24;;;;;;;20.70;14.27;;;4.40;99.90;;;;;;4993476;28;20478;-69
2023/04/26 04:57:51;;;;;;;21.47;14.87;;;4.40;99.90;;;;;;4993303;28;20849;-71
2023/04/26 05:00:19;;;;;;;28.47;16.20;;;4.40;99.90;;;;;;4993376;28;20534;-69
2023/04/26 05:02:45;;;;;;;19.93;16.40;;;4.50;99.90;;;;;;4991669;28;20494;-70
2023/04/26 05:05:12;;;;;;;30.77;18.93;;;4.50;99.90;;;;;;4992914;28;20451;-69
2023/04/26 05:07:41;;;;;;;26.17;19.10;;;4.50;99.90;;;;;;4992982;28;20541;-71
2023/04/26 05:10:08;;;;;;;24.03;17.87;;;4.50;99.90;;;;;;4993036;28;20466;-70
2023/04/26 05:12:35;;;;;;;24.03;19.40;;;4.60;99.90;;;;;;5005004;28;20470;-71
2023/04/26 05:15:03;;;;;;;33.43;21.00;;;4.80;99.90;;;;;;5010184;28;20482;-72
2023/04/26 05:17:31;;;;;;;33.20;21.70;;;4.80;99.90;;;;;;5011264;28;20449;-71
2023/04/26 05:19:58;;;;;;;30.80;20.40;;;4.90;99.90;;;;;;4999256;28;20459;-70
2023/04/26 05:22:24;;;;;;;27.03;18.80;;;4.90;99.90;;;;;;5021620;28;20643;-69
2023/04/26 05:24:53;;;;;;;28.40;20.67;;;5.00;99.90;;;;;;5025058;28;20459;-70
2023/04/26 05:27:19;;;;;;;28.90;18.90;;;5.10;99.90;;;;;;5025181;28;20494;-70
2023/04/26 05:29:47;;;;;;;27.27;18.00;;;5.10;99.90;;;;;;5030214;28;20514;-71
2023/04/26 05:32:14;;;;;;;26.57;18.60;;;5.10;99.90;;;;;;5016040;28;20476;-69
2023/04/26 05:34:41;;;;;;;29.17;19.63;;;5.30;99.90;;;;;;5014100;28;20494;-70
2023/04/26 05:37:08;;;;;;;24.53;17.77;;;5.30;99.90;;;;;;5016210;28;20541;-70
2023/04/26 05:39:35;;;;;;;22.87;16.60;;;5.30;99.90;;;;;;5014581;28;21023;-71
2023/04/26 05:42:03;;;;;;;26.13;16.87;;;5.40;99.90;;;;;;5015241;28;20550;-70
2023/04/26 05:44:30;;;;;;;22.23;16.73;;;5.40;99.90;;;;;;5011522;28;20473;-70
2023/04/26 05:46:57;;;;;;;23.03;16.47;;;5.50;99.90;;;;;;4996127;28;20458;-71
2023/04/26 05:49:24;;;;;;;21.60;16.77;;;5.60;99.90;;;;;;5003118;28;21034;-71
2023/04/26 05:51:51;;;;;;;30.67;20.10;;;5.60;99.90;;;;;;5015022;28;20566;-72
2023/04/26 05:54:18;;;;;;;25.03;17.70;;;5.60;99.90;;;;;;5007975;28;20451;-70
2023/04/26 05:56:45;;;;;;;28.70;17.00;;;5.70;99.90;;;;;;5013387;28;20837;-71
2023/04/26 05:59:13;;;;;;;22.63;18.47;;;5.80;99.90;;;;;;5013600;28;20458;-70
2023/04/26 06:01:40;;;;;;;23.90;18.20;;;5.90;99.60;;;;;;5013965;28;20455;-71
2023/04/26 06:04:07;;;;;;;24.20;17.87;;;6.00;99.40;;;;;;5013024;28;20474;-71
2023/04/26 06:06:33;;;;;;;23.77;18.03;;;6.10;99.60;;;;;;5013681;28;20512;-70
2023/04/26 06:09:00;;;;;;;24.80;19.20;;;6.20;99.70;;;;;;5012867;28;20454;-71
2023/04/26 06:11:27;;;;;;;24.70;19.10;;;6.20;99.40;;;;;;5012528;28;20962;-72
2023/04/26 06:13:54;;;;;;;29.37;21.63;;;6.10;99.50;;;;;;5012775;28;20557;-72
2023/04/26 06:16:23;;;;;;;27.27;19.80;;;6.10;98.80;;;;;;5012128;28;20482;-71
2023/04/26 06:18:49;;;;;;;26.53;20.60;;;6.10;99.10;;;;;;5013977;28;20456;-70
2023/04/26 06:21:16;;;;;;;29.70;21.43;;;6.10;99.20;;;;;;5013602;28;21059;-70
2023/04/26 06:23:43;;;;;;;27.70;21.77;;;6.10;99.20;;;;;;5013482;28;20854;-71
2023/04/26 06:26:10;;;;;;;28.70;20.50;;;6.20;99.00;;;;;;5006424;28;20484;-72
2023/04/26 06:28:37;;;;;;;26.90;19.87;;;6.20;98.60;;;;;;5008968;28;20460;-71
2023/04/26 06:31:04;;;;;;;23.50;18.67;;;6.30;98.30;;;;;;5006636;28;20450;-72
2023/04/26 06:33:32;;;;;;;19.50;16.43;;;6.40;98.60;;;;;;5005061;28;21330;-71
2023/04/26 06:35:59;;;;;;;23.30;17.87;;;6.50;97.80;;;;;;5007626;28;21189;-70
2023/04/26 06:38:25;;;;;;;24.00;17.90;;;6.50;98.20;;;;;;5002815;28;20567;-69
2023/04/26 06:40:52;;;;;;;27.13;18.67;;;6.60;98.70;;;;;;4998391;28;20456;-72
2023/04/26 06:43:19;;;;;;;17.00;14.03;;;6.70;98.70;;;;;;5006709;28;20838;-69
2023/04/26 06:45:46;;;;;;;15.60;13.37;;;6.80;95.30;;;;;;5001590;28;20455;-71
2023/04/26 06:48:13;;;;;;;18.20;13.03;;;6.90;94.60;;;;;;5004503;28;20880;-70
2023/04/26 06:50:41;;;;;;;13.27;11.63;;;6.90;93.60;;;;;;5013161;28;20527;-71
2023/04/26 06:53:08;;;;;;;14.77;11.90;;;6.90;93.60;;;;;;5004943;28;20468;-70
2023/04/26 06:55:35;;;;;;;19.20;13.43;;;7.10;93.00;;;;;;5017449;28;20472;-71
2023/04/26 06:58:02;;;;;;;16.33;13.03;;;7.00;92.70;;;;;;5012848;28;20487;-71
2023/04/26 07:00:29;;;;;;;14.80;11.37;;;7.10;92.30;;;;;;5012090;28;20827;-69
2023/04/26 07:02:56;;;;;;;14.90;10.70;;;7.20;91.70;;;;;;5010613;28;20493;-70
2023/04/26 07:05:23;;;;;;;12.77;10.57;;;7.30;90.70;;;;;;5012426;28;20443;-71
2023/04/26 07:07:52;;;;;;;11.87;9.77;;;7.40;88.60;;;;;;5012906;28;20538;-71
2023/04/26 07:10:19;;;;;;;17.47;11.13;;;7.40;87.10;;;;;;5013559;28;20894;-71
2023/04/26 07:12:46;;;;;;;6.73;5.73;;;7.40;88.20;;;;;;5011655;28;20523;-71
2023/04/26 07:15:13;;;;;;;7.50;6.23;;;7.50;78.90;;;;;;5012754;28;20590;-70
2023/04/26 07:17:40;;;;;;;11.70;8.37;;;7.60;75.40;;;;;;5002768;28;20449;-71
2023/04/26 07:20:09;;;;;;;9.63;6.43;;;7.60;76.30;;;;;;4992997;28;20800;-70
2023/04/26 07:22:35;;;;;;;13.43;8.43;;;7.60;74.10;;;;;;4991460;28;20859;-70
2023/04/26 07:25:05;;;;;;;12.30;8.97;;;7.70;83.00;;;;;;4992737;28;20934;-71
2023/04/26 07:27:32;;;;;;;12.10;7.60;;;7.90;86.70;;;;;;4992227;28;21008;-70
2023/04/26 07:29:58;;;;;;;8.57;7.07;;;8.00;81.20;;;;;;4993163;28;20540;-70
2023/04/26 07:32:25;;;;;;;7.40;6.60;;;8.00;75.40;;;;;;4992380;28;20475;-71
2023/04/26 07:34:52;;;;;;;9.13;5.90;;;8.00;74.20;;;;;;4993904;28;20457;-72
2023/04/26 07:37:19;;;;;;;10.73;8.10;;;8.00;73.10;;;;;;4993148;28;20547;-70
2023/04/26 07:39:47;;;;;;;8.30;7.23;;;8.10;79.70;;;;;;4994407;28;20469;-69
2023/04/26 07:42:15;;;;;;;10.90;6.77;;;8.20;75.10;;;;;;4994765;28;20475;-69
2023/04/26 07:44:42;;;;;;;9.10;7.37;;;8.40;76.90;;;;;;4995369;28;20447;-70
2023/04/26 07:47:13;;;;;;;10.27;7.73;;;8.50;76.00;;;;;;4997652;28;20485;-71
2023/04/26 07:49:40;;;;;;;9.03;6.93;;;8.70;76.00;;;;;;4996719;28;20454;-72
2023/04/26 07:52:08;;;;;;;9.87;8.00;;;8.90;76.90;;;;;;4996717;28;20478;-70
2023/04/26 07:54:35;;;;;;;8.70;7.90;;;9.20;72.60;;;;;;4995817;28;20461;-69
2023/04/26 07:57:02;;;;;;;12.07;8.20;;;9.20;71.20;;;;;;5011116;28;20478;-73
2023/04/26 07:59:30;;;;;;;9.50;7.30;;;9.10;67.50;;;;;;5015670;28;20933;-70
2023/04/26 08:01:57;;;;;;;14.20;7.10;;;9.00;71.50;;;;;;5016796;28;20485;-70
2023/04/26 08:04:32;;;;;;;10.10;7.40;;;9.10;68.50;;;;;;5015524;28;20534;-71
2023/04/26 08:07:02;;;;;;;12.50;9.03;;;9.10;66.90;;;;;;5030581;28;20476;-70
2023/04/26 08:09:29;;;;;;;10.93;8.60;;;9.20;68.30;;;;;;5037414;28;20453;-69
2023/04/26 08:11:56;;;;;;;9.03;7.00;;;9.40;68.00;;;;;;4996764;28;20471;-70
2023/04/26 08:14:23;;;;;;;10.00;6.80;;;9.30;64.40;;;;;;4997447;28;20478;-70
2023/04/26 08:16:52;;;;;;;8.10;6.90;;;9.20;61.50;;;;;;4998582;28;20485;-69
2023/04/26 08:19:19;;;;;;;12.23;6.90;;;9.30;62.50;;;;;;4998954;28;20562;-69
2023/04/26 08:21:46;;;;;;;8.87;7.00;;;9.50;62.50;;;;;;4997370;28;20466;-70
2023/04/26 08:24:12;;;;;;;9.70;7.10;;;9.80;65.60;;;;;;4997273;28;20491;-71
2023/04/26 08:26:40;;;;;;;10.93;6.80;;;10.00;59.70;;;;;;4999937;28;20479;-70
2023/04/26 08:29:07;;;;;;;8.00;7.30;;;10.10;61.70;;;;;;5018014;28;20459;-70
2023/04/26 08:31:34;;;;;;;11.40;6.93;;;10.40;63.40;;;;;;5019192;28;20983;-69
2023/04/26 08:34:03;;;;;;;10.40;7.60;;;10.10;61.20;;;;;;5019836;28;20481;-70
2023/04/26 08:36:31;;;;;;;8.10;7.30;;;9.90;61.80;;;;;;5019727;28;20494;-70
2023/04/26 08:38:58;;;;;;;9.80;6.90;;;10.00;60.70;;;;;;5019908;28;20948;-70
2023/04/26 08:41:26;;;;;;;9.93;6.73;;;10.10;59.30;;;;;;5019611;28;20507;-71
2023/04/26 08:43:55;;;;;;;12.17;8.63;;;10.20;59.60;;;;;;5017287;28;20474;-70
2023/04/26 08:46:23;;;;;;;8.80;7.00;;;10.60;59.70;;;;;;5020320;28;20989;-70
2023/04/26 08:49:05;;;;;;;10.60;7.10;;;11.10;56.60;;;;;;5019852;28;20459;-72
2023/04/26 08:51:36;;;;;;;12.60;6.10;;;11.30;56.30;;;;;;5019913;28;20512;-71
2023/04/26 08:54:05;;;;;;;7.43;6.70;;;11.60;54.20;;;;;;5033608;28;20478;-70
2023/04/26 08:56:34;;;;;;;11.33;6.53;;;11.60;53.70;;;;;;5038866;28;20574;-69
2023/04/26 08:59:01;;;;;;;8.13;5.57;;;11.80;53.40;;;;;;5037958;28;21049;-70
2023/04/26 09:01:29;;;;;;;11.93;5.70;;;12.00;52.90;;;;;;5021093;28;20525;-71
2023/04/26 09:03:56;;;;;;;7.50;5.43;;;12.00;49.20;;;;;;5019568;28;20555;-70
2023/04/26 09:06:24;;;;;;;8.00;5.30;;;11.90;49.20;;;;;;5010119;28;20442;-71
2023/04/26 09:08:56;;;;;;;7.40;5.90;;;12.00;50.00;;;;;;5009572;28;20456;-71
2023/04/26 09:11:23;;;;;;;8.17;5.80;;;12.30;54.50;;;;;;5008307;28;20447;-71
2023/04/26 09:13:50;;;;;;;10.23;6.27;;;12.60;54.80;;;;;;5006956;28;20526;-72
2023/04/26 09:16:17;;;;;;;8.43;5.37;;;13.10;53.30;;;;;;5008124;28;20482;-71
2023/04/26 09:18:53;;;;;;;6.50;5.00;;;13.50;50.70;;;;;;5008990;28;20448;-71
2023/04/26 09:21:20;;;;;;;9.27;5.10;;;13.60;51.70;;;;;;5008902;28;20441;-72
2023/04/26 09:24:00;;;;;;;6.80;5.07;;;13.90;52.30;;;;;;5008533;28;20567;-71
2023/04/26 09:26:27;;;;;;;7.30;5.03;;;14.60;47.60;;;;;;5011403;28;20490;-72
2023/04/26 09:29:12;;;;;;;7.20;5.90;;;14.80;46.30;;;;;;5005353;28;20886;-71
2023/04/26 09:31:41;;;;;;;8.50;5.30;;;14.30;43.00;;;;;;5006353;28;20853;-71
2023/04/26 09:34:09;;;;;;;7.03;4.60;;;13.80;45.60;;;;;;5004279;28;20464;-71
2023/04/26 09:36:47;;;;;;;7.83;5.47;;;13.90;46.90;;;;;;5006133;28;20494;-71
2023/04/26 09:39:29;;;;;;;7.13;4.70;;;13.70;44.80;;;;;;5005831;28;20486;-71
2023/04/26 09:41:56;;;;;;;7.03;4.80;;;14.20;50.40;;;;;;5007226;28;20438;-72
2023/04/26 09:44:23;;;;;;;8.10;5.43;;;14.80;49.10;;;;;;5006481;28;20457;-71
2023/04/26 09:47:05;;;;;;;6.63;5.33;;;14.90;44.70;;;;;;5005250;28;20450;-72
2023/04/26 09:49:43;;;;;;;7.80;4.60;;;15.40;47.10;;;;;;5007175;28;20456;-71
2023/04/26 09:52:11;;;;;;;6.30;5.53;;;15.90;48.30;;;;;;5007407;28;20502;-70
2023/04/26 09:54:44;;;;;;;6.77;5.40;;;15.90;42.00;;;;;;5004816;28;20509;-71
2023/04/26 09:57:12;;;;;;;6.73;5.87;;;15.00;43.10;;;;;;5005510;28;20487;-72
2023/04/26 09:59:43;;;;;;;8.60;5.57;;;14.40;45.30;;;;;;5006781;28;20536;-70
2023/04/26 10:02:19;;;;;;;6.50;5.57;;;13.90;45.70;;;;;;5006861;28;20546;-70
2023/04/26 10:04:48;;;;;;;12.10;6.20;;;13.30;46.30;;;;;;5006093;28;20450;-72
2023/04/26 10:07:17;;;;;;;10.03;6.73;;;13.00;46.90;;;;;;5005159;28;20887;-71
2023/04/26 10:09:46;;;;;;;7.70;6.40;;;12.80;47.40;;;;;;5004953;28;20452;-71
2023/04/26 10:12:15;;;;;;;10.97;6.57;;;12.60;48.60;;;;;;5005811;28;20475;-71
2023/04/26 10:14:43;;;;;;;7.53;5.77;;;12.60;49.60;;;;;;5005932;28;20455;-70
2023/04/26 10:17:10;;;;;;;5.90;5.20;;;12.80;46.80;;;;;;5007167;28;20600;-71
2023/04/26 10:19:39;;;;;;;9.73;5.67;;;13.20;45.50;;;;;;5005603;28;20457;-70
2023/04/26 10:22:10;;;;;;;10.63;5.53;;;13.80;45.00;;;;;;5005366;28;20460;-72
2023/04/26 10:24:37;;;;;;;8.77;5.20;;;14.40;47.30;;;;;;5004822;28;20451;-72
2023/04/26 10:27:05;;;;;;;6.10;4.90;;;14.90;51.40;;;;;;5005461;28;20542;-70
2023/04/26 10:30:08;;;;;;;7.77;5.00;;;15.40;44.30;;;;;;5004683;28;20446;-71
2023/04/26 10:33:16;;;;;;;6.70;4.83;;;15.80;43.50;;;;;;5006477;28;20891;-71
2023/04/26 10:36:03;;;;;;;5.43;4.90;;;16.40;42.40;;;;;;5005696;28;20441;-72
2023/04/26 10:38:30;;;;;;;6.90;4.33;;;16.30;43.60;;;;;;5007483;28;20451;-69
2023/04/26 10:41:44;;;;;;;8.60;5.17;;;16.50;44.30;;;;;;5017050;28;20457;-71
2023/04/26 10:44:40;;;;;;;6.60;4.63;;;17.20;42.00;;;;;;5004449;28;20972;-71
2023/04/26 10:47:20;;;;;;;8.80;5.37;;;17.90;41.80;;;;;;4998408;28;20526;-70
2023/04/26 10:49:47;;;;;;;8.70;4.90;;;18.20;39.20;;;;;;4999364;28;20466;-71
2023/04/26 10:52:16;;;;;;;7.23;4.80;;;18.10;43.60;;;;;;5005613;28;20465;-71
2023/04/26 10:54:53;;;;;;;6.57;5.10;;;18.30;42.10;;;;;;5009270;28;20458;-71
2023/04/26 10:57:21;;;;;;;6.90;5.63;;;18.40;41.10;;;;;;5026220;28;20480;-70
2023/04/26 11:00:33;;;;;;;5.87;5.27;;;17.20;36.60;;;;;;5018825;28;21132;-71
2023/04/26 11:03:07;;;;;;;6.03;5.00;;;17.00;42.60;;;;;;5015708;28;20501;-71
2023/04/26 11:05:58;;;;;;;7.50;5.13;;;17.40;42.40;;;;;;5015798;28;20461;-71
2023/04/26 11:08:27;;;;;;;5.97;5.37;;;17.30;37.70;;;;;;5005696;28;20552;-71
2023/04/26 11:11:08;;;;;;;5.93;4.93;;;16.10;37.80;;;;;;5005176;28;20485;-69
2023/04/26 11:13:36;;;;;;;5.13;4.63;;;15.50;39.90;;;;;;4995482;28;20489;-70
2023/04/26 11:16:04;;;;;;;5.93;4.37;;;15.20;41.20;;;;;;4997918;28;20530;-70
2023/04/26 11:18:33;;;;;;;6.37;4.70;;;15.60;44.00;;;;;;4995844;28;20481;-70
2023/04/26 11:21:00;;;;;;;6.10;5.10;;;16.10;38.90;;;;;;4995815;28;20471;-69
2023/04/26 11:23:29;;;;;;;5.80;5.30;;;15.90;37.40;;;;;;4994748;28;20477;-70
2023/04/26 11:25:58;;;;;;;4.67;4.07;;;15.90;38.60;;;;;;4996405;28;20460;-70
2023/04/26 11:28:25;;;;;;;5.27;4.00;;;16.20;41.60;;;;;;4995458;28;20514;-69
2023/04/26 11:30:52;;;;;;;6.10;4.57;;;16.20;43.80;;;;;;4996302;28;20453;-69
2023/04/26 11:33:21;;;;;;;4.53;3.70;;;16.70;38.40;;;;;;4995251;28;20480;-70
2023/04/26 11:35:49;;;;;;;7.27;4.80;;;17.30;41.90;;;;;;4996264;28;20464;-70
2023/04/26 11:38:17;;;;;;;6.10;5.50;;;17.50;38.20;;;;;;5000061;28;20486;-71
2023/04/26 11:40:44;;;;;;;5.07;4.23;;;17.10;38.70;;;;;;5015471;28;20456;-70
2023/04/26 11:43:14;;;;;;;7.60;5.37;;;17.50;42.20;;;;;;5014358;28;21003;-71
2023/04/26 11:45:41;;;;;;;6.23;5.20;;;18.60;41.40;;;;;;5003954;28;20450;-70
2023/04/26 11:48:12;;;;;;;10.20;6.63;;;19.10;38.40;;;;;;4997403;28;20573;-70
2023/04/26 11:50:40;;;;;;;6.77;5.27;;;18.90;40.20;;;;;;5007583;28;20456;-71
2023/04/26 11:53:09;;;;;;;5.53;4.60;;;18.90;39.70;;;;;;5009608;28;20529;-70
2023/04/26 11:55:36;;;;;;;9.03;5.47;;;18.50;36.00;;;;;;5015106;28;20510;-72
2023/04/26 11:58:11;;;;;;;5.30;4.20;;;19.00;40.80;;;;;;5007419;28;20520;-71
2023/04/26 12:00:38;;;;;;;7.37;5.10;;;19.20;35.00;;;;;;5004557;28;20446;-71
2023/04/26 12:03:09;;;;;;;5.83;4.90;;;18.70;36.30;;;;;;5017109;28;20493;-71
2023/04/26 12:05:36;;;;;;;7.23;5.47;;;17.90;37.00;;;;;;5003071;28;20485;-70
2023/04/26 12:08:03;;;;;;;10.93;5.90;;;17.10;37.00;;;;;;5010454;28;20447;-70
2023/04/26 12:10:37;;;;;;;7.50;5.50;;;16.20;38.30;;;;;;5010444;28;20458;-70
2023/04/26 12:13:04;;;;;;;6.93;5.40;;;16.20;39.10;;;;;;5013897;28;20459;-70
2023/04/26 12:15:33;;;;;;;7.77;5.07;;;15.70;37.80;;;;;;5017598;28;20487;-72
2023/04/26 12:18:05;;;;;;;9.20;5.57;;;15.60;38.60;;;;;;5011262;28;20543;-71
2023/04/26 12:20:34;;;;;;;5.13;4.33;;;16.20;39.40;;;;;;5014947;28;20542;-71
2023/04/26 12:23:05;;;;;;;8.47;5.70;;;16.60;40.00;;;;;;5010082;28;20473;-71
2023/04/26 12:25:35;;;;;;;6.43;4.97;;;16.50;40.40;;;;;;5015876;28;20459;-70
2023/04/26 12:28:04;;;;;;;7.20;4.70;;;16.70;40.70;;;;;;5001734;28;20445;-71
2023/04/26 12:30:31;;;;;;;9.33;4.57;;;17.00;37.90;;;;;;4996940;28;20494;-71
2023/04/26 12:32:58;;;;;;;7.33;5.17;;;16.80;37.80;;;;;;4996073;28;20573;-71
2023/04/26 12:35:25;;;;;;;7.30;5.07;;;17.30;37.20;;;;;;4996421;28;20561;-70
2023/04/26 12:37:55;;;;;;;7.33;5.50;;;17.70;36.70;;;;;;4997965;28;20495;-71
2023/04/26 12:40:23;;;;;;;6.73;4.37;;;18.00;35.80;;;;;;5002333;28;20550;-71
2023/04/26 12:42:51;;;;;;;6.07;4.60;;;17.60;36.10;;;;;;5002396;28;20478;-71
2023/04/26 12:45:19;;;;;;;5.20;4.50;;;16.90;36.00;;;;;;5007150;28;20435;-70
2023/04/26 12:47:46;;;;;;;12.30;5.80;;;17.00;38.60;;;;;;5004873;28;20528;-71